sensor_id;sensor_type;location;lat;lon;timestamp;pressure;altitude;pressure_sealevel;temperature;humidity
20256;BME280;10286;59.364;18.016;2022-10-16T00:01:21;100073.53;;;13.14;100.00
20256;BME280;10286;59.364;18.016;2022-10-16T00:03:49;100067.03;;;13.16;100.00
20256;BME280;10286;59.364;18.016;2022-10-16T00:06:16;100064.41;;;13.16;100.00
20256;BME280;10286;59.364;18.016;2022-10-16T00:08:45;100052.78;;;13.17;100.00
20256;BME280;10286;59.364;18.016;2022-10-16T00:11:13;100051.13;;;13.16;100.00
20256;BME280;10286;59.364;18.016;2022-10-16T00:13:40;100047.34;;;13.11;100.00
20256;BME280;10286;59.364;18.016;2022-10-16T00:16:07;100052.47;;;13.12;100.00
20256;BME280;10286;59.364;18.016;2022-10-16T00:18:34;100056.28;;;13.10;100.00
20256;BME280;10286;59.364;18.016;2022-10-16T00:21:02;100056.28;;;13.10;100.00
20256;BME280;10286;59.364;18.016;2022-10-16T00:23:29;100051.97;;;13.09;100.00
20256;BME280;10286;59.364;18.016;2022-10-16T00:25:58;100043.84;;;13.10;100.00
20256;BME280;10286;59.364;18.016;2022-10-16T00:28:25;100043.19;;;13.08;100.00
20256;BME280;10286;59.364;18.016;2022-10-16T00:30:52;100052.66;;;13.11;100.00
20256;BME280;10286;59.364;18.016;2022-10-16T00:33:19;100051.00;;;13.10;100.00
20256;BME280;10286;59.364;18.016;2022-10-16T00:35:47;100046.69;;;13.09;100.00
20256;BME280;10286;59.364;18.016;2022-10-16T00:38:13;100039.19;;;13.04;100.00
20256;BME280;10286;59.364;18.016;2022-10-16T00:40:40;100039.69;;;13.00;100.00
20256;BME280;10286;59.364;18.016;2022-10-16T00:43:11;100040.16;;;12.95;100.00
20256;BME280;10286;59.364;18.016;2022-10-16T00:45:38;100030.72;;;12.93;100.00
20256;BME280;10286;59.364;18.016;2022-10-16T00:48:06;100036.69;;;12.95;100.00
20256;BME280;10286;59.364;18.016;2022-10-16T00:50:34;100034.84;;;12.95;100.00
20256;BME280;10286;59.364;18.016;2022-10-16T00:53:01;100038.16;;;12.97;100.00
20256;BME280;10286;59.364;18.016;2022-10-16T00:55:28;100030.41;;;12.96;100.00
20256;BME280;10286;59.364;18.016;2022-10-16T00:57:55;100027.09;;;12.94;100.00
20256;BME280;10286;59.364;18.016;2022-10-16T01:00:25;100031.69;;;12.92;100.00
20256;BME280;10286;59.364;18.016;2022-10-16T01:02:53;100035.31;;;12.91;100.00
20256;BME280;10286;59.364;18.016;2022-10-16T01:05:20;100034.47;;;12.90;100.00
20256;BME280;10286;59.364;18.016;2022-10-16T01:07:49;100033.16;;;12.86;100.00
20256;BME280;10286;59.364;18.016;2022-10-16T01:10:21;100013.63;;;12.87;100.00
20256;BME280;10286;59.364;18.016;2022-10-16T01:12:54;100017.25;;;12.86;100.00
20256;BME280;10286;59.364;18.016;2022-10-16T01:15:25;100022.69;;;12.85;100.00
20256;BME280;10286;59.364;18.016;2022-10-16T01:17:56;100024.88;;;12.81;100.00
20256;BME280;10286;59.364;18.016;2022-10-16T01:20:25;100018.72;;;12.81;100.00
20256;BME280;10286;59.364;18.016;2022-10-16T01:23:04;100028.31;;;12.82;100.00
20256;BME280;10286;59.364;18.016;2022-10-16T01:25:36;100025.66;;;12.82;100.00
20256;BME280;10286;59.364;18.016;2022-10-16T01:28:08;100030.31;;;12.80;100.00
20256;BME280;10286;59.364;18.016;2022-10-16T01:30:37;100033.63;;;12.82;100.00
20256;BME280;10286;59.364;18.016;2022-10-16T01:33:08;100044.06;;;12.83;100.00
20256;BME280;10286;59.364;18.016;2022-10-16T01:35:37;100041.25;;;12.85;100.00
20256;BME280;10286;59.364;18.016;2022-10-16T01:38:06;100042.91;;;12.86;100.00
20256;BME280;10286;59.364;18.016;2022-10-16T01:40:34;100040.94;;;12.88;100.00
20256;BME280;10286;59.364;18.016;2022-10-16T01:43:03;100047.22;;;12.87;100.00
20256;BME280;10286;59.364;18.016;2022-10-16T01:45:33;100033.16;;;12.86;100.00
20256;BME280;10286;59.364;18.016;2022-10-16T01:48:01;100051.84;;;12.85;100.00
20256;BME280;10286;59.364;18.016;2022-10-16T01:50:30;100044.56;;;12.87;100.00
20256;BME280;10286;59.364;18.016;2022-10-16T01:52:58;100046.25;;;12.88;100.00
20256;BME280;10286;59.364;18.016;2022-10-16T01:55:25;100051.53;;;12.88;100.00
20256;BME280;10286;59.364;18.016;2022-10-16T01:57:54;100049.03;;;12.86;100.00
20256;BME280;10286;59.364;18.016;2022-10-16T02:00:21;100048.38;;;12.84;100.00
20256;BME280;10286;59.364;18.016;2022-10-16T02:02:51;100044.56;;;12.87;100.00
20256;BME280;10286;59.364;18.016;2022-10-16T02:05:21;100027.69;;;12.88;100.00
20256;BME280;10286;59.364;18.016;2022-10-16T02:07:48;100017.91;;;12.88;100.00
20256;BME280;10286;59.364;18.016;2022-10-16T02:10:15;100026.53;;;12.90;100.00
20256;BME280;10286;59.364;18.016;2022-10-16T02:12:44;100027.38;;;12.91;100.00
20256;BME280;10286;59.364;18.016;2022-10-16T02:15:12;100032.69;;;12.91;100.00
20256;BME280;10286;59.364;18.016;2022-10-16T02:17:38;100028.06;;;12.93;100.00
20256;BME280;10286;59.364;18.016;2022-10-16T02:20:07;100031.69;;;12.92;100.00
20256;BME280;10286;59.364;18.016;2022-10-16T02:22:35;100029.72;;;12.94;100.00
20256;BME280;10286;59.364;18.016;2022-10-16T02:25:04;100028.06;;;12.93;100.00
20256;BME280;10286;59.364;18.016;2022-10-16T02:27:33;100031.38;;;12.95;100.00
20256;BME280;10286;59.364;18.016;2022-10-16T02:30:03;100022.44;;;12.96;100.00
20256;BME280;10286;59.364;18.016;2022-10-16T02:32:34;100026.09;;;12.95;100.00
20256;BME280;10286;59.364;18.016;2022-10-16T02:35:02;100035.84;;;12.94;100.00
20256;BME280;10286;59.364;18.016;2022-10-16T02:37:31;100038.50;;;12.94;100.00
20256;BME280;10286;59.364;18.016;2022-10-16T02:39:59;100044.63;;;12.95;100.00
20256;BME280;10286;59.364;18.016;2022-10-16T02:42:29;100042.81;;;12.95;100.00
20256;BME280;10286;59.364;18.016;2022-10-16T02:44:56;100046.28;;;12.96;100.00
20256;BME280;10286;59.364;18.016;2022-10-16T02:47:23;100040.34;;;12.94;100.00
20256;BME280;10286;59.364;18.016;2022-10-16T02:49:50;100019.13;;;12.94;100.00
20256;BME280;10286;59.364;18.016;2022-10-16T02:52:17;100027.75;;;12.96;100.00
20256;BME280;10286;59.364;18.016;2022-10-16T02:54:45;100017.16;;;12.96;100.00
20256;BME280;10286;59.364;18.016;2022-10-16T02:57:12;100003.72;;;12.97;100.00
20256;BME280;10286;59.364;18.016;2022-10-16T02:59:39;100002.41;;;12.93;100.00
20256;BME280;10286;59.364;18.016;2022-10-16T03:02:05;100000.59;;;12.94;100.00
20256;BME280;10286;59.364;18.016;2022-10-16T03:04:32;99998.75;;;12.94;100.00
20256;BME280;10286;59.364;18.016;2022-10-16T03:06:59;100000.41;;;12.95;100.00
20256;BME280;10286;59.364;18.016;2022-10-16T03:09:26;99995.94;;;12.96;100.00
20256;BME280;10286;59.364;18.016;2022-10-16T03:11:54;99998.59;;;12.96;100.00
20256;BME280;10286;59.364;18.016;2022-10-16T03:14:21;99990.97;;;12.93;100.00
20256;BME280;10286;59.364;18.016;2022-10-16T03:16:48;99984.97;;;12.91;100.00
20256;BME280;10286;59.364;18.016;2022-10-16T03:19:15;99987.63;;;12.91;100.00
20256;BME280;10286;59.364;18.016;2022-10-16T03:21:42;99986.28;;;12.87;100.00
20256;BME280;10286;59.364;18.016;2022-10-16T03:24:09;99980.31;;;12.85;100.00
20256;BME280;10286;59.364;18.016;2022-10-16T03:26:36;99980.63;;;12.82;100.00
20256;BME280;10286;59.364;18.016;2022-10-16T03:29:05;99991.75;;;12.77;100.00
20256;BME280;10286;59.364;18.016;2022-10-16T03:31:32;99988.09;;;12.78;100.00
20256;BME280;10286;59.364;18.016;2022-10-16T03:33:58;99985.59;;;12.77;100.00
20256;BME280;10286;59.364;18.016;2022-10-16T03:36:25;100000.81;;;12.75;100.00
20256;BME280;10286;59.364;18.016;2022-10-16T03:38:52;100002.81;;;12.73;100.00
20256;BME280;10286;59.364;18.016;2022-10-16T03:41:19;99977.66;;;12.69;100.00
20256;BME280;10286;59.364;18.016;2022-10-16T03:43:46;99984.06;;;12.66;100.00
20256;BME280;10286;59.364;18.016;2022-10-16T03:46:14;99982.56;;;12.64;100.00
20256;BME280;10286;59.364;18.016;2022-10-16T03:48:41;99980.25;;;12.61;100.00
20256;BME280;10286;59.364;18.016;2022-10-16T03:51:07;99973.78;;;12.55;100.00
20256;BME280;10286;59.364;18.016;2022-10-16T03:53:34;99973.94;;;12.54;100.00
20256;BME280;10286;59.364;18.016;2022-10-16T03:56:01;99982.56;;;12.56;100.00
20256;BME280;10286;59.364;18.016;2022-10-16T03:58:28;99971.16;;;12.55;100.00
20256;BME280;10286;59.364;18.016;2022-10-16T04:00:55;99964.03;;;12.56;100.00
20256;BME280;10286;59.364;18.016;2022-10-16T04:03:23;99979.38;;;12.52;100.00
20256;BME280;10286;59.364;18.016;2022-10-16T04:05:50;99974.09;;;12.52;100.00
20256;BME280;10286;59.364;18.016;2022-10-16T04:08:16;99965.47;;;12.50;100.00
20256;BME280;10286;59.364;18.016;2022-10-16T04:10:43;99957.53;;;12.50;100.00
20256;BME280;10286;59.364;18.016;2022-10-16T04:13:10;99960.34;;;12.49;100.00
20256;BME280;10286;59.364;18.016;2022-10-16T04:15:37;99968.31;;;12.49;100.00
20256;BME280;10286;59.364;18.016;2022-10-16T04:18:04;99972.94;;;12.47;100.00
20256;BME280;10286;59.364;18.016;2022-10-16T04:20:32;99979.88;;;12.48;100.00
20256;BME280;10286;59.364;18.016;2022-10-16T04:22:59;99970.28;;;12.47;100.00
20256;BME280;10286;59.364;18.016;2022-10-16T04:25:26;99966.13;;;12.44;100.00
20256;BME280;10286;59.364;18.016;2022-10-16T04:27:52;99968.09;;;12.42;100.00
20256;BME280;10286;59.364;18.016;2022-10-16T04:30:19;99983.00;;;12.43;100.00
20256;BME280;10286;59.364;18.016;2022-10-16T04:32:47;99994.91;;;12.39;100.00
20256;BME280;10286;59.364;18.016;2022-10-16T04:35:14;99991.94;;;12.42;100.00
20256;BME280;10286;59.364;18.016;2022-10-16T04:37:42;99985.97;;;12.40;100.00
20256;BME280;10286;59.364;18.016;2022-10-16T04:40:09;99990.59;;;12.38;100.00
20256;BME280;10286;59.364;18.016;2022-10-16T04:42:36;99989.94;;;12.36;100.00
20256;BME280;10286;59.364;18.016;2022-10-16T04:45:03;99982.13;;;12.35;100.00
20256;BME280;10286;59.364;18.016;2022-10-16T04:47:31;99975.50;;;12.31;100.00
20256;BME280;10286;59.364;18.016;2022-10-16T04:49:57;99985.75;;;12.26;100.00
20256;BME280;10286;59.364;18.016;2022-10-16T04:52:27;99984.69;;;12.19;100.00
20256;BME280;10286;59.364;18.016;2022-10-16T04:54:56;99981.22;;;12.18;100.00
20256;BME280;10286;59.364;18.016;2022-10-16T04:57:26;99978.72;;;12.17;100.00
20256;BME280;10286;59.364;18.016;2022-10-16T04:59:53;99981.69;;;12.14;100.00
20256;BME280;10286;59.364;18.016;2022-10-16T05:02:20;99980.72;;;12.15;100.00
20256;BME280;10286;59.364;18.016;2022-10-16T05:04:46;99981.03;;;12.12;100.00
20256;BME280;10286;59.364;18.016;2022-10-16T05:07:13;99974.75;;;12.13;100.00
20256;BME280;10286;59.364;18.016;2022-10-16T05:09:40;99989.81;;;12.12;100.00
20256;BME280;10286;59.364;18.016;2022-10-16T05:12:09;99987.84;;;12.14;100.00
20256;BME280;10286;59.364;18.016;2022-10-16T05:14:37;99992.13;;;12.15;100.00
20256;BME280;10286;59.364;18.016;2022-10-16T05:17:04;99995.91;;;12.13;100.00
20256;BME280;10286;59.364;18.016;2022-10-16T05:19:31;99987.00;;;12.14;100.00
20256;BME280;10286;59.364;18.016;2022-10-16T05:21:57;99993.28;;;12.13;100.00
20256;BME280;10286;59.364;18.016;2022-10-16T05:24:24;99997.56;;;12.14;100.00
20256;BME280;10286;59.364;18.016;2022-10-16T05:26:51;99985.00;;;12.16;100.00
20256;BME280;10286;59.364;18.016;2022-10-16T05:29:19;99983.22;;;12.16;100.00
20256;BME280;10286;59.364;18.016;2022-10-16T05:31:46;99983.53;;;12.13;100.00
20256;BME280;10286;59.364;18.016;2022-10-16T05:34:13;99980.72;;;12.15;100.00
20256;BME280;10286;59.364;18.016;2022-10-16T05:36:40;99976.09;;;12.17;100.00
20256;BME280;10286;59.364;18.016;2022-10-16T05:39:07;99979.72;;;12.16;100.00
20256;BME280;10286;59.364;18.016;2022-10-16T05:41:33;99983.03;;;12.18;100.00
20256;BME280;10286;59.364;18.016;2022-10-16T05:44:00;99989.19;;;12.18;100.00
20256;BME280;10286;59.364;18.016;2022-10-16T05:46:31;99979.41;;;12.19;100.00
20256;BME280;10286;59.364;18.016;2022-10-16T05:48:58;99988.84;;;12.21;100.00
20256;BME280;10286;59.364;18.016;2022-10-16T05:51:24;99983.38;;;12.23;100.00
20256;BME280;10286;59.364;18.016;2022-10-16T05:53:51;99987.03;;;12.22;100.00
20256;BME280;10286;59.364;18.016;2022-10-16T05:56:18;99994.28;;;12.20;100.00
20256;BME280;10286;59.364;18.016;2022-10-16T05:58:45;99992.31;;;12.22;100.00
20256;BME280;10286;59.364;18.016;2022-10-16T06:01:12;99994.66;;;12.25;100.00
20256;BME280;10286;59.364;18.016;2022-10-16T06:03:41;100005.25;;;12.25;100.00
20256;BME280;10286;59.364;18.016;2022-10-16T06:06:09;100007.19;;;12.23;100.00
20256;BME280;10286;59.364;18.016;2022-10-16T06:08:36;100002.44;;;12.26;100.00
20256;BME280;10286;59.364;18.016;2022-10-16T06:11:04;100014.53;;;12.29;100.00
20256;BME280;10286;59.364;18.016;2022-10-16T06:13:31;100001.97;;;12.31;100.00
20256;BME280;10286;59.364;18.016;2022-10-16T06:15:58;100001.78;;;12.32;100.00
20256;BME280;10286;59.364;18.016;2022-10-16T06:18:25;100012.75;;;12.37;100.00
20256;BME280;10286;59.364;18.016;2022-10-16T06:20:54;99995.72;;;12.40;100.00
20256;BME280;10286;59.364;18.016;2022-10-16T06:23:20;100006.97;;;12.42;100.00
20256;BME280;10286;59.364;18.016;2022-10-16T06:25:47;100016.94;;;12.48;100.00
20256;BME280;10286;59.364;18.016;2022-10-16T06:28:14;100015.47;;;12.53;100.00
20256;BME280;10286;59.364;18.016;2022-10-16T06:30:41;100018.31;;;12.60;100.00
20256;BME280;10286;59.364;18.016;2022-10-16T06:33:09;100021.63;;;12.62;100.00
20256;BME280;10286;59.364;18.016;2022-10-16T06:35:35;100024.78;;;12.65;100.00
20256;BME280;10286;59.364;18.016;2022-10-16T06:38:04;100027.13;;;12.68;100.00
20256;BME280;10286;59.364;18.016;2022-10-16T06:40:30;100021.16;;;12.74;100.00
20256;BME280;10286;59.364;18.016;2022-10-16T06:42:57;100027.16;;;12.76;100.00
20256;BME280;10286;59.364;18.016;2022-10-16T06:45:24;100035.47;;;12.81;100.00
20256;BME280;10286;59.364;18.016;2022-10-16T06:47:51;100032.31;;;12.86;100.00
20256;BME280;10286;59.364;18.016;2022-10-16T06:50:17;100033.66;;;12.90;100.00
20256;BME280;10286;59.364;18.016;2022-10-16T06:52:44;100035.47;;;12.89;100.00
20256;BME280;10286;59.364;18.016;2022-10-16T06:55:13;100049.38;;;12.91;100.00
20256;BME280;10286;59.364;18.016;2022-10-16T06:57:40;100042.97;;;12.94;100.00
20256;BME280;10286;59.364;18.016;2022-10-16T07:00:07;100042.81;;;12.95;100.00
20256;BME280;10286;59.364;18.016;2022-10-16T07:02:34;100042.19;;;13.01;100.00
20256;BME280;10286;59.364;18.016;2022-10-16T07:05:00;100049.63;;;13.06;100.00
20256;BME280;10286;59.364;18.016;2022-10-16T07:07:28;100044.31;;;13.06;100.00
20256;BME280;10286;59.364;18.016;2022-10-16T07:09:54;100041.53;;;13.07;100.00
20256;BME280;10286;59.364;18.016;2022-10-16T07:12:23;100039.03;;;13.06;100.00
20256;BME280;10286;59.364;18.016;2022-10-16T07:14:50;100038.03;;;13.07;100.00
20256;BME280;10286;59.364;18.016;2022-10-16T07:17:19;100046.81;;;13.07;100.00
20256;BME280;10286;59.364;18.016;2022-10-16T07:19:46;100050.00;;;13.11;100.00
20256;BME280;10286;59.364;18.016;2022-10-16T07:22:13;100049.31;;;13.09;100.00
20256;BME280;10286;59.364;18.016;2022-10-16T07:24:40;100051.28;;;13.07;100.00
20256;BME280;10286;59.364;18.016;2022-10-16T07:27:08;100049.31;;;13.09;100.00
20256;BME280;10286;59.364;18.016;2022-10-16T07:29:37;100052.66;;;13.11;100.00
20256;BME280;10286;59.364;18.016;2022-10-16T07:32:04;100053.44;;;13.11;100.00
20256;BME280;10286;59.364;18.016;2022-10-16T07:34:31;100052.13;;;13.15;100.00
20256;BME280;10286;59.364;18.016;2022-10-16T07:36:57;100052.13;;;13.15;100.00
20256;BME280;10286;59.364;18.016;2022-10-16T07:39:24;100056.44;;;13.16;100.00
20256;BME280;10286;59.364;18.016;2022-10-16T07:41:51;100056.97;;;13.20;100.00
20256;BME280;10286;59.364;18.016;2022-10-16T07:44:18;100065.06;;;13.18;100.00
20256;BME280;10286;59.364;18.016;2022-10-16T07:46:47;100056.97;;;13.20;100.00
20256;BME280;10286;59.364;18.016;2022-10-16T07:49:14;100058.47;;;13.22;100.00
20256;BME280;10286;59.364;18.016;2022-10-16T07:51:40;100057.09;;;13.18;100.00
20256;BME280;10286;59.364;18.016;2022-10-16T07:54:07;100058.78;;;13.19;100.00
20256;BME280;10286;59.364;18.016;2022-10-16T07:56:34;100062.41;;;13.18;100.00
20256;BME280;10286;59.364;18.016;2022-10-16T07:59:01;100052.78;;;13.17;100.00
20256;BME280;10286;59.364;18.016;2022-10-16T08:01:28;100053.66;;;13.18;100.00
20256;BME280;10286;59.364;18.016;2022-10-16T08:03:56;100061.06;;;13.14;100.00
20256;BME280;10286;59.364;18.016;2022-10-16T08:06:23;100059.94;;;13.17;100.00
20256;BME280;10286;59.364;18.016;2022-10-16T08:08:50;100062.25;;;13.20;100.00
20256;BME280;10286;59.364;18.016;2022-10-16T08:11:17;100064.25;;;13.18;100.00
20256;BME280;10286;59.364;18.016;2022-10-16T08:13:44;100067.88;;;13.17;100.00
20256;BME280;10286;59.364;18.016;2022-10-16T08:16:11;100066.25;;;13.24;100.00
20256;BME280;10286;59.364;18.016;2022-10-16T08:18:38;100074.19;;;13.24;100.00
20256;BME280;10286;59.364;18.016;2022-10-16T08:21:07;100078.31;;;13.18;100.00
20256;BME280;10286;59.364;18.016;2022-10-16T08:23:34;100080.16;;;13.18;100.00
20256;BME280;10286;59.364;18.016;2022-10-16T08:26:02;100075.84;;;13.17;100.00
20256;BME280;10286;59.364;18.016;2022-10-16T08:28:29;100081.34;;;13.23;100.00
20256;BME280;10286;59.364;18.016;2022-10-16T08:30:56;100087.44;;;13.24;100.00
20256;BME280;10286;59.364;18.016;2022-10-16T08:33:23;100081.53;;;13.30;100.00
20256;BME280;10286;59.364;18.016;2022-10-16T08:35:50;100083.19;;;13.31;100.00
20256;BME280;10286;59.364;18.016;2022-10-16T08:38:19;100079.34;;;13.33;100.00
20256;BME280;10286;59.364;18.016;2022-10-16T08:40:46;100083.50;;;13.36;100.00
20256;BME280;10286;59.364;18.016;2022-10-16T08:46:03;100077.03;;;13.38;100.00
20256;BME280;10286;59.364;18.016;2022-10-16T08:48:34;100090.16;;;13.40;100.00
20256;BME280;10286;59.364;18.016;2022-10-16T08:51:03;100073.91;;;13.43;100.00
20256;BME280;10286;59.364;18.016;2022-10-16T08:53:35;100078.41;;;13.50;100.00
20256;BME280;10286;59.364;18.016;2022-10-16T08:56:04;100078.53;;;13.49;100.00
20256;BME280;10286;59.364;18.016;2022-10-16T08:58:31;100084.84;;;13.48;100.00
20256;BME280;10286;59.364;18.016;2022-10-16T09:00:59;100084.84;;;13.40;100.00
20256;BME280;10286;59.364;18.016;2022-10-16T09:03:33;100083.69;;;13.42;100.00
20256;BME280;10286;59.364;18.016;2022-10-16T09:06:11;100087.81;;;13.45;100.00
20256;BME280;10286;59.364;18.016;2022-10-16T09:08:48;100084.50;;;13.43;100.00
20256;BME280;10286;59.364;18.016;2022-10-16T09:11:21;100095.63;;;13.46;100.00
20256;BME280;10286;59.364;18.016;2022-10-16T09:13:51;100088.34;;;13.56;100.00
20256;BME280;10286;59.364;18.016;2022-10-16T09:16:22;100090.19;;;13.56;100.00
20256;BME280;10286;59.364;18.016;2022-10-16T09:18:52;100084.06;;;13.71;100.00
20256;BME280;10286;59.364;18.016;2022-10-16T09:21:21;100083.00;;;14.98;100.00
20256;BME280;10286;59.364;18.016;2022-10-16T09:23:52;100084.84;;;14.59;100.00
20256;BME280;10286;59.364;18.016;2022-10-16T09:26:21;100088.56;;;14.18;100.00
20256;BME280;10286;59.364;18.016;2022-10-16T09:28:48;100085.56;;;14.21;100.00
20256;BME280;10286;59.364;18.016;2022-10-16T09:31:15;100091.03;;;14.36;100.00
20256;BME280;10286;59.364;18.016;2022-10-16T09:33:42;100091.34;;;14.33;100.00
20256;BME280;10286;59.364;18.016;2022-10-16T09:36:11;100093.53;;;14.21;100.00
20256;BME280;10286;59.364;18.016;2022-10-16T09:38:39;100079.94;;;14.16;100.00
20256;BME280;10286;59.364;18.016;2022-10-16T09:41:13;100083.38;;;14.25;100.00
20256;BME280;10286;59.364;18.016;2022-10-16T09:43:41;100080.38;;;14.44;100.00
20256;BME280;10286;59.364;18.016;2022-10-16T09:46:21;100083.34;;;14.57;100.00
20256;BME280;10286;59.364;18.016;2022-10-16T09:48:49;100083.69;;;15.00;100.00
20256;BME280;10286;59.364;18.016;2022-10-16T09:51:18;100079.75;;;14.88;100.00
20256;BME280;10286;59.364;18.016;2022-10-16T09:53:45;100089.53;;;14.88;100.00
20256;BME280;10286;59.364;18.016;2022-10-16T09:56:22;100081.03;;;14.92;100.00
20256;BME280;10286;59.364;18.016;2022-10-16T09:58:49;100081.50;;;15.04;100.00
20256;BME280;10286;59.364;18.016;2022-10-16T10:01:18;100081.81;;;15.39;100.00
20256;BME280;10286;59.364;18.016;2022-10-16T10:03:45;100080.56;;;16.68;100.00
20256;BME280;10286;59.364;18.016;2022-10-16T10:06:18;100093.97;;;17.04;97.62
20256;BME280;10286;59.364;18.016;2022-10-16T10:08:52;100082.94;;;17.56;97.23
20256;BME280;10286;59.364;18.016;2022-10-16T10:14:06;100078.41;;;17.99;91.76
20256;BME280;10286;59.364;18.016;2022-10-16T10:16:37;100081.31;;;16.77;97.86
20256;BME280;10286;59.364;18.016;2022-10-16T10:19:04;100072.41;;;16.33;100.00
20256;BME280;10286;59.364;18.016;2022-10-16T10:21:32;100075.91;;;16.33;99.50
20256;BME280;10286;59.364;18.016;2022-10-16T10:24:00;100088.97;;;15.69;100.00
20256;BME280;10286;59.364;18.016;2022-10-16T10:26:27;100098.78;;;15.38;100.00
20256;BME280;10286;59.364;18.016;2022-10-16T10:28:55;100089.13;;;15.45;100.00
20256;BME280;10286;59.364;18.016;2022-10-16T10:31:31;100087.63;;;15.43;100.00
20256;BME280;10286;59.364;18.016;2022-10-16T10:34:11;100077.59;;;15.97;100.00
20256;BME280;10286;59.364;18.016;2022-10-16T10:36:44;100092.81;;;15.89;99.97
20256;BME280;10286;59.364;18.016;2022-10-16T10:39:15;100089.94;;;15.45;100.00
20256;BME280;10286;59.364;18.016;2022-10-16T10:41:59;100092.56;;;15.15;100.00
20256;BME280;10286;59.364;18.016;2022-10-16T10:44:32;100083.44;;;15.18;100.00
20256;BME280;10286;59.364;18.016;2022-10-16T10:47:06;100088.34;;;15.59;100.00
20256;BME280;10286;59.364;18.016;2022-10-16T10:49:43;100087.84;;;15.86;100.00
20256;BME280;10286;59.364;18.016;2022-10-16T10:52:23;100090.34;;;16.02;100.00
20256;BME280;10286;59.364;18.016;2022-10-16T10:54:58;100087.28;;;16.64;97.64
20256;BME280;10286;59.364;18.016;2022-10-16T10:57:30;100087.00;;;16.88;95.77
20256;BME280;10286;59.364;18.016;2022-10-16T11:00:06;100080.25;;;17.35;93.21
20256;BME280;10286;59.364;18.016;2022-10-16T11:02:42;100083.09;;;17.55;91.38
20256;BME280;10286;59.364;18.016;2022-10-16T11:07:54;100067.16;;;17.61;91.35
20256;BME280;10286;59.364;18.016;2022-10-16T11:10:26;100073.94;;;17.28;90.50
20256;BME280;10286;59.364;18.016;2022-10-16T11:12:55;100078.63;;;17.55;88.51
20256;BME280;10286;59.364;18.016;2022-10-16T11:15:24;100082.28;;;17.05;89.94
20256;BME280;10286;59.364;18.016;2022-10-16T11:17:53;100064.69;;;16.23;94.63
20256;BME280;10286;59.364;18.016;2022-10-16T11:20:23;100064.31;;;16.12;96.49
20256;BME280;10286;59.364;18.016;2022-10-16T11:22:53;100063.16;;;15.92;98.41
20256;BME280;10286;59.364;18.016;2022-10-16T11:25:23;100058.03;;;15.68;97.84
20256;BME280;10286;59.364;18.016;2022-10-16T11:27:53;100059.63;;;15.54;98.13
20256;BME280;10286;59.364;18.016;2022-10-16T11:30:22;100057.97;;;15.53;96.60
20256;BME280;10286;59.364;18.016;2022-10-16T11:32:54;100056.28;;;15.30;97.76
20256;BME280;10286;59.364;18.016;2022-10-16T11:35:24;100055.41;;;15.38;96.62
20256;BME280;10286;59.364;18.016;2022-10-16T11:37:51;100057.50;;;15.50;96.36
20256;BME280;10286;59.364;18.016;2022-10-16T11:40:21;100042.31;;;15.28;98.11
20256;BME280;10286;59.364;18.016;2022-10-16T11:42:51;100054.28;;;15.32;97.65
20256;BME280;10286;59.364;18.016;2022-10-16T11:45:23;100040.88;;;15.18;99.04
20256;BME280;10286;59.364;18.016;2022-10-16T11:47:57;100035.84;;;15.00;100.00
20256;BME280;10286;59.364;18.016;2022-10-16T11:50:29;100042.38;;;14.90;100.00
20256;BME280;10286;59.364;18.016;2022-10-16T11:53:00;100032.91;;;14.87;100.00
20256;BME280;10286;59.364;18.016;2022-10-16T11:55:29;100033.25;;;14.84;100.00
20256;BME280;10286;59.364;18.016;2022-10-16T11:57:59;100031.25;;;14.78;100.00
20256;BME280;10286;59.364;18.016;2022-10-16T12:00:28;100025.94;;;14.78;100.00
20256;BME280;10286;59.364;18.016;2022-10-16T12:03:00;100020.97;;;14.83;100.00
20256;BME280;10286;59.364;18.016;2022-10-16T12:05:33;100015.16;;;14.80;100.00
20256;BME280;10286;59.364;18.016;2022-10-16T12:08:05;100010.22;;;14.99;99.66
20256;BME280;10286;59.364;18.016;2022-10-16T12:10:34;100006.31;;;15.18;99.17
20256;BME280;10286;59.364;18.016;2022-10-16T12:13:02;100006.41;;;15.54;96.38
20256;BME280;10286;59.364;18.016;2022-10-16T12:15:30;99996.88;;;15.60;96.64
20256;BME280;10286;59.364;18.016;2022-10-16T12:17:57;100002.22;;;15.38;98.15
20256;BME280;10286;59.364;18.016;2022-10-16T12:20:29;99994.44;;;15.28;99.27
20256;BME280;10286;59.364;18.016;2022-10-16T12:22:58;100000.56;;;15.06;100.00
20256;BME280;10286;59.364;18.016;2022-10-16T12:25:27;99985.84;;;15.18;100.00
20256;BME280;10286;59.364;18.016;2022-10-16T12:27:58;99972.06;;;15.45;99.57
20256;BME280;10286;59.364;18.016;2022-10-16T12:30:27;99977.22;;;15.98;97.44
20256;BME280;10286;59.364;18.016;2022-10-16T12:32:55;99975.81;;;15.87;97.60
20256;BME280;10286;59.364;18.016;2022-10-16T12:35:22;99969.97;;;15.55;100.00
20256;BME280;10286;59.364;18.016;2022-10-16T12:37:52;99973.00;;;15.30;100.00
20256;BME280;10286;59.364;18.016;2022-10-16T12:40:26;99981.59;;;15.09;100.00
20256;BME280;10286;59.364;18.016;2022-10-16T12:42:53;99979.88;;;14.94;100.00
20256;BME280;10286;59.364;18.016;2022-10-16T12:45:29;99969.47;;;14.84;100.00
20256;BME280;10286;59.364;18.016;2022-10-16T12:47:57;99967.81;;;14.83;100.00